Time;durP1;ratioP1;P1;durP2;ratioP2;P2;SDS_P1;SDS_P2;PMS_P1;PMS_P2;Temp;Humidity;BMP_temperature;BMP_pressure;BME280_temperature;BME280_humidity;BME280_pressure;Samples;Min_cycle;Max_cycle;Signal;HPM_P1;HPM_P2
2022/04/30 04:22:12;;;;;;;5.50;3.10;;;;;;;8.75;96.10;102920.31;5055018;28;1197626;-29
2022/04/30 04:27:25;;;;;;;3.45;2.72;;;;;;;8.81;95.65;102922.97;5089713;28;20043;-26
2022/04/30 04:29:54;;;;;;;3.75;2.58;;;;;;;8.83;95.45;102926.38;5090977;28;20056;-27
2022/04/30 04:32:24;;;;;;;4.85;3.20;;;;;;;8.86;95.14;102925.06;5091595;28;20051;-27
2022/04/30 04:34:52;;;;;;;5.88;3.00;;;;;;;8.87;95.05;102918.41;5089158;28;20046;-26
2022/04/30 04:37:21;;;;;;;5.00;3.10;;;;;;;8.87;94.96;102923.97;5090224;28;20492;-28
2022/04/30 04:39:50;;;;;;;5.28;2.80;;;;;;;8.86;94.97;102922.28;5091261;28;20048;-27
2022/04/30 04:42:19;;;;;;;4.70;2.80;;;;;;;8.86;94.76;102919.50;5090909;28;20141;-27
2022/04/30 04:44:47;;;;;;;5.00;3.13;;;;;;;8.83;94.52;102918.03;5090457;28;20055;-28
2022/04/30 04:47:15;;;;;;;3.88;2.80;;;;;;;8.81;94.29;102916.56;5091150;28;20072;-27
2022/04/30 04:49:43;;;;;;;6.03;3.03;;;;;;;8.78;94.29;102920.69;5088325;28;20036;-26
2022/04/30 04:52:12;;;;;;;5.50;3.35;;;;;;;8.77;94.85;102919.00;5090939;28;20523;-26
2022/04/30 04:54:41;;;;;;;5.97;2.88;;;;;;;8.77;95.00;102920.94;5090888;28;20050;-27
2022/04/30 04:57:09;;;;;;;4.32;2.80;;;;;;;8.74;95.44;102915.84;5089932;28;20048;-28
2022/04/30 04:59:37;;;;;;;5.13;2.72;;;;;;;8.71;95.84;102925.50;5090770;28;20048;-28
2022/04/30 05:02:05;;;;;;;4.78;2.92;;;;;;;8.68;95.96;102920.41;5089560;28;20048;-27
2022/04/30 05:04:33;;;;;;;5.53;3.13;;;;;;;8.65;95.94;102918.09;5079260;28;20188;-26
2022/04/30 05:07:01;;;;;;;3.92;2.35;;;;;;;8.62;96.05;102913.00;5090584;28;20110;-26
2022/04/30 05:09:30;;;;;;;3.70;2.67;;;;;;;8.60;96.73;102918.78;5072557;28;20101;-27
2022/04/30 05:12:01;;;;;;;3.30;2.45;;;;;;;8.59;96.63;102921.84;5087931;28;20066;-28
2022/04/30 05:14:31;;;;;;;4.63;2.80;;;;;;;8.58;96.86;102920.13;5087174;28;20032;-26
2022/04/30 05:16:59;;;;;;;4.50;3.00;;;;;;;8.58;96.67;102918.19;5088615;28;20044;-25
2022/04/30 05:19:32;;;;;;;4.60;2.58;;;;;;;8.60;96.99;102923.50;5089330;28;20044;-25
2022/04/30 05:21:59;;;;;;;4.07;2.88;;;;;;;8.62;96.56;102918.56;5089949;28;20056;-30
2022/04/30 05:24:28;;;;;;;4.38;2.80;;;;;;;8.63;96.29;102918.31;5090182;28;20058;-26
2022/04/30 05:26:56;;;;;;;4.50;2.78;;;;;;;8.65;96.44;102923.66;5089744;28;20056;-27
2022/04/30 05:29:25;;;;;;;6.28;2.95;;;;;;;8.68;96.38;102925.13;5089835;28;20151;-27
2022/04/30 05:31:52;;;;;;;5.82;2.65;;;;;;;8.72;95.98;102926.34;5089529;28;20512;-28
2022/04/30 05:34:20;;;;;;;5.90;2.90;;;;;;;8.76;95.92;102924.81;5090087;28;20123;-28
2022/04/30 05:36:48;;;;;;;6.38;2.60;;;;;;;8.81;96.22;102925.75;5089941;28;20382;-26
2022/04/30 05:39:16;;;;;;;5.47;3.17;;;;;;;8.86;96.38;102923.13;5089593;28;20051;-28
2022/04/30 05:41:43;;;;;;;5.63;2.70;;;;;;;8.94;96.71;102924.75;5090160;28;20494;-26
2022/04/30 05:44:11;;;;;;;5.38;2.80;;;;;;;9.01;96.96;102919.03;5089452;28;20080;-25
2022/04/30 05:46:40;;;;;;;4.88;3.08;;;;;;;9.08;96.56;102930.94;5089149;28;20055;-25
2022/04/30 05:49:08;;;;;;;5.18;2.85;;;;;;;9.14;96.32;102930.84;5087577;28;20260;-28
2022/04/30 05:51:36;;;;;;;5.95;2.72;;;;;;;9.21;96.49;102925.13;5089864;28;20048;-26
2022/04/30 05:54:04;;;;;;;5.55;2.80;;;;;;;9.29;96.11;102927.59;5089331;28;20417;-26
2022/04/30 05:56:32;;;;;;;5.45;2.90;;;;;;;9.36;96.29;102928.34;5089765;28;20071;-27
2022/04/30 05:58:59;;;;;;;6.60;3.22;;;;;;;9.46;96.53;102923.00;5088948;28;20401;-27
2022/04/30 06:01:27;;;;;;;6.10;3.20;;;;;;;9.56;96.69;102928.84;5087093;28;20063;-28
2022/04/30 06:03:57;;;;;;;5.20;3.22;;;;;;;9.67;97.13;102932.69;5089837;28;20146;-27
2022/04/30 06:06:26;;;;;;;5.72;3.30;;;;;;;9.80;96.85;102932.44;5089456;28;20066;-29
2022/04/30 06:08:54;;;;;;;4.97;2.83;;;;;;;9.93;96.42;102925.78;5088802;28;20048;-26
2022/04/30 06:11:22;;;;;;;5.40;2.50;;;;;;;10.06;95.65;102928.28;5089337;28;20051;-27
2022/04/30 06:13:50;;;;;;;5.60;2.50;;;;;;;10.20;95.64;102928.91;5087606;28;20044;-26
2022/04/30 06:16:17;;;;;;;5.75;2.47;;;;;;;10.28;95.23;102931.31;5087562;28;20052;-28
2022/04/30 06:18:45;;;;;;;4.55;2.42;;;;;;;10.30;94.78;102929.13;5088417;28;20067;-30
2022/04/30 06:21:34;;;;;;;3.75;2.10;;;;;;;10.30;94.50;102929.13;5088119;28;20052;-27
2022/04/30 06:24:02;;;;;;;4.38;2.10;;;;;;;10.29;94.34;102927.44;5087504;28;20542;-27
2022/04/30 06:26:33;;;;;;;7.30;2.35;;;;;;;10.29;94.21;102930.22;5088966;28;20362;-26
2022/04/30 06:29:02;;;;;;;6.20;2.00;;;;;;;10.45;94.79;102932.22;5088191;28;20052;-27
2022/04/30 06:31:30;;;;;;;6.65;2.05;;;;;;;10.91;94.91;102927.53;5089246;28;20150;-30
2022/04/30 06:33:58;;;;;;;4.35;2.20;;;;;;;11.31;92.40;102933.84;5070769;28;20119;-29
2022/04/30 06:36:26;;;;;;;4.50;1.98;;;;;;;11.47;90.28;102931.31;5088795;28;20048;-28
2022/04/30 06:38:56;;;;;;;3.58;1.90;;;;;;;11.57;89.87;102931.50;5089089;28;20048;-30
2022/04/30 06:41:23;;;;;;;4.70;2.00;;;;;;;11.65;89.22;102931.88;5089237;28;20564;-27
2022/04/30 06:43:51;;;;;;;2.95;1.50;;;;;;;11.68;88.30;102931.38;5088129;28;20500;-28
2022/04/30 06:46:19;;;;;;;4.80;2.00;;;;;;;11.70;87.33;102931.13;5089157;28;20052;-32
2022/04/30 06:48:47;;;;;;;4.13;1.70;;;;;;;11.75;87.14;102931.22;5088023;28;20497;-30
2022/04/30 06:51:15;;;;;;;5.95;1.30;;;;;;;11.80;86.70;102928.50;5088499;28;20047;-27
2022/04/30 06:59:31;;;;;;;5.20;1.38;;;;;;;11.98;84.67;102927.38;5005876;28;20041;-26
2022/04/30 07:02:01;;;;;;;2.97;1.25;;;;;;;12.02;85.09;102925.75;5054085;28;20135;-26
2022/04/30 07:04:30;;;;;;;3.83;1.48;;;;;;;12.43;85.63;102919.56;5088361;28;20118;-22
2022/04/30 07:06:57;;;;;;;3.78;1.40;;;;;;;13.06;83.78;102914.38;5089221;28;20040;-25
2022/04/30 07:09:26;;;;;;;3.78;1.30;;;;;;;13.86;82.94;102918.13;5088850;28;20048;-29
2022/04/30 07:11:55;;;;;;;3.30;1.40;;;;;;;14.78;79.77;102917.44;5087980;28;20051;-28
2022/04/30 07:14:23;;;;;;;3.40;1.25;;;;;;;15.62;75.16;102914.13;5088440;28;20086;-27
2022/04/30 07:16:51;;;;;;;3.25;1.15;;;;;;;16.36;70.00;102920.97;5093184;28;20075;-28
2022/04/30 07:19:19;;;;;;;3.85;1.50;;;;;;;16.60;67.05;102918.31;5087274;28;20036;-29
2022/04/30 07:21:46;;;;;;;3.22;1.35;;;;;;;16.44;65.60;102926.00;5089512;28;20138;-28
2022/04/30 07:24:14;;;;;;;4.05;1.25;;;;;;;16.11;65.42;102919.94;5089312;28;20131;-28
2022/04/30 07:26:42;;;;;;;2.70;1.42;;;;;;;15.73;65.57;102929.03;5089543;28;20103;-28
2022/04/30 07:29:11;;;;;;;4.95;1.30;;;;;;;15.30;66.03;102927.63;5089090;28;20046;-26
2022/04/30 07:31:39;;;;;;;6.90;1.48;;;;;;;14.86;67.25;102939.38;5087906;28;20040;-27
2022/04/30 07:34:09;;;;;;;3.67;1.40;;;;;;;14.46;68.60;102928.84;5086808;28;20080;-27
2022/04/30 07:36:37;;;;;;;3.45;1.27;;;;;;;14.14;70.23;102929.81;5088967;28;20412;-27
2022/04/30 07:39:05;;;;;;;3.33;1.30;;;;;;;13.94;71.79;102931.66;5087688;28;20040;-29
2022/04/30 07:41:33;;;;;;;5.78;1.73;;;;;;;13.71;73.02;102930.09;5092114;28;20054;-30
2022/04/30 07:44:01;;;;;;;3.60;1.60;;;;;;;13.52;73.85;102937.25;5092928;28;20157;-28
2022/04/30 07:46:30;;;;;;;5.60;1.38;;;;;;;13.44;75.19;102933.81;5092287;28;20052;-27
2022/04/30 07:48:58;;;;;;;3.92;1.38;;;;;;;13.81;75.43;102935.75;5092772;28;20055;-27
2022/04/30 07:51:35;;;;;;;2.75;1.20;;;;;;;14.03;73.25;102938.41;5093054;28;20060;-27
2022/04/30 07:54:03;;;;;;;2.05;0.90;;;;;;;14.04;71.11;102938.16;5092134;28;20048;-29
2022/04/30 07:56:30;;;;;;;3.05;1.00;;;;;;;14.02;70.85;102929.16;5093054;28;20056;-29
2022/04/30 07:58:58;;;;;;;2.70;0.90;;;;;;;14.32;71.23;102927.63;5093076;28;20044;-28
2022/04/30 08:01:26;;;;;;;3.28;1.20;;;;;;;15.04;70.77;102935.19;5092099;28;20044;-28
2022/04/30 08:03:55;;;;;;;3.60;1.30;;;;;;;15.97;67.63;102932.94;5092879;28;20044;-28
2022/04/30 08:06:23;;;;;;;2.67;1.00;;;;;;;16.75;64.40;102924.75;5091840;28;20063;-28
2022/04/30 08:08:51;;;;;;;3.45;1.00;;;;;;;17.28;61.31;102933.41;5090313;28;20504;-28
2022/04/30 08:11:19;;;;;;;2.17;0.90;;;;;;;17.87;60.18;102930.34;5090808;28;20048;-28
2022/04/30 08:13:46;;;;;;;3.58;0.98;;;;;;;18.67;57.34;102926.88;5092100;28;20425;-27
2022/04/30 08:16:14;;;;;;;3.05;0.90;;;;;;;19.36;54.13;102925.28;5092846;28;20052;-29
2022/04/30 08:18:42;;;;;;;2.40;0.80;;;;;;;19.77;51.63;102922.59;5092578;28;20048;-29
2022/04/30 08:21:11;;;;;;;3.05;0.80;;;;;;;20.18;50.12;102922.63;5091697;28;20131;-29
2022/04/30 08:23:39;;;;;;;1.63;0.60;;;;;;;20.63;49.61;102920.84;5092490;28;20047;-29
2022/04/30 08:26:07;;;;;;;2.60;0.80;;;;;;;21.22;47.47;102918.06;5092580;28;20051;-32
2022/04/30 08:28:35;;;;;;;2.95;0.70;;;;;;;21.50;46.77;102928.16;5091764;28;20044;-28
2022/04/30 08:31:03;;;;;;;2.22;0.77;;;;;;;21.80;44.79;102917.13;5093130;28;20058;-29
2022/04/30 08:33:31;;;;;;;2.20;0.88;;;;;;;22.12;44.30;102916.84;5092128;28;20051;-30
2022/04/30 08:35:58;;;;;;;1.92;0.70;;;;;;;22.53;42.86;102919.34;5090667;28;20059;-29
2022/04/30 08:38:28;;;;;;;1.83;0.52;;;;;;;22.49;41.90;102908.94;5092446;28;20054;-29
2022/04/30 08:40:56;;;;;;;2.08;0.75;;;;;;;22.26;42.16;102923.25;5092412;28;20062;-29
2022/04/30 08:43:24;;;;;;;1.73;0.60;;;;;;;21.97;42.35;102920.09;5091568;28;20053;-30
2022/04/30 08:45:52;;;;;;;2.03;0.73;;;;;;;21.56;41.73;102923.19;5092107;28;20036;-29
2022/04/30 08:48:20;;;;;;;1.38;0.60;;;;;;;21.08;42.86;102917.25;5090450;28;20524;-29
2022/04/30 08:50:48;;;;;;;2.13;0.70;;;;;;;20.64;43.30;102916.84;5090893;28;20078;-29
2022/04/30 08:53:16;;;;;;;2.10;0.80;;;;;;;20.31;43.99;102918.13;5092114;28;20059;-29
2022/04/30 08:55:45;;;;;;;5.10;1.15;;;;;;;20.02;44.10;102918.41;5091329;28;20047;-29
2022/04/30 08:58:15;;;;;;;2.15;0.70;;;;;;;19.77;45.00;102910.41;5092088;28;20048;-29
2022/04/30 09:00:45;;;;;;;2.25;0.70;;;;;;;19.58;45.46;102921.81;5091828;28;20097;-28
2022/04/30 09:03:14;;;;;;;1.88;0.50;;;;;;;19.54;45.72;102920.75;5091204;28;20044;-29
2022/04/30 09:05:43;;;;;;;2.33;0.73;;;;;;;19.85;45.22;102921.84;5091945;28;20044;-29
2022/04/30 09:08:11;;;;;;;2.55;0.70;;;;;;;20.25;44.03;102913.69;5091954;28;20052;-28
2022/04/30 09:10:39;;;;;;;3.33;0.70;;;;;;;20.62;43.69;102915.47;5091014;28;20048;-29
2022/04/30 09:13:13;;;;;;;2.97;0.63;;;;;;;20.74;43.35;102912.97;5091748;28;20508;-29
2022/04/30 09:15:44;;;;;;;2.63;0.73;;;;;;;20.70;43.66;102903.41;5080477;28;20048;-29
2022/04/30 09:18:12;;;;;;;2.78;0.80;;;;;;;20.91;44.24;102903.75;5091159;28;20480;-32
2022/04/30 09:20:45;;;;;;;3.35;0.80;;;;;;;21.26;44.08;102902.06;5091547;28;20040;-28
2022/04/30 09:23:24;;;;;;;2.58;0.90;;;;;;;21.33;42.32;102902.47;5081141;28;20052;-29
2022/04/30 09:25:53;;;;;;;1.80;0.73;;;;;;;21.16;43.21;102905.16;5090682;28;20051;-28
2022/04/30 09:28:28;;;;;;;3.03;0.82;;;;;;;20.91;42.94;102900.94;5080812;28;20048;-30
2022/04/30 09:31:07;;;;;;;2.25;0.70;;;;;;;20.59;44.24;102899.09;5090853;28;20412;-28
2022/04/30 09:33:35;;;;;;;2.97;0.82;;;;;;;20.36;45.52;102898.16;5081100;28;20048;-28
2022/04/30 09:38:53;;;;;;;3.33;0.90;;;;;;;20.02;46.02;102903.41;5081326;28;20141;-29
2022/04/30 09:41:25;;;;;;;2.53;0.80;;;;;;;19.84;46.82;102893.84;5091177;28;20132;-28
2022/04/30 09:44:00;;;;;;;;;;;;;;;19.54;44.76;102898.94;5085039;28;20387;-28
2022/04/30 09:46:29;;;;;;;3.28;1.00;;;;;;;19.38;47.90;102894.66;5090336;28;19967;-30
2022/04/30 09:54:28;;;;;;;2.38;0.70;;;;;;;18.98;48.20;102895.34;5082234;28;20051;-30
2022/04/30 09:56:59;;;;;;;2.13;0.88;;;;;;;18.76;48.46;102888.31;5090759;28;20503;-28
2022/04/30 09:59:31;;;;;;;3.05;0.80;;;;;;;18.36;48.59;102889.69;5090454;28;20052;-29
2022/04/30 10:02:00;;;;;;;;;;;;;;;17.90;46.63;102886.56;5091420;28;20083;-29
2022/04/30 10:04:28;;;;;;;1.50;0.50;;;;;;;17.62;50.08;102890.19;5090614;28;19965;-27
2022/04/30 10:07:01;;;;;;;1.73;0.60;;;;;;;17.39;49.48;102886.19;5090075;28;20525;-27
2022/04/30 10:09:33;;;;;;;1.65;0.60;;;;;;;17.20;50.05;102877.59;5090936;28;20052;-27
2022/04/30 10:12:09;;;;;;;2.65;0.70;;;;;;;17.31;50.88;102879.22;5090341;28;20036;-28
2022/04/30 10:14:54;;;;;;;3.38;0.80;;;;;;;17.54;50.61;102871.94;5090064;28;20118;-28
2022/04/30 10:17:23;;;;;;;2.80;1.00;;;;;;;17.58;50.39;102873.03;5087473;28;20043;-28
2022/04/30 10:19:59;;;;;;;3.08;0.95;;;;;;;17.55;50.49;102865.16;5090480;28;20043;-27
2022/04/30 10:22:28;;;;;;;2.88;1.02;;;;;;;17.62;50.70;102870.44;5090221;28;20056;-32
2022/04/30 10:24:57;;;;;;;2.88;0.98;;;;;;;17.72;50.45;102859.09;5090850;28;20439;-28
2022/04/30 10:27:37;;;;;;;3.22;1.10;;;;;;;17.72;49.65;102861.91;5089629;28;20044;-33
2022/04/30 10:30:18;;;;;;;2.72;0.90;;;;;;;17.71;49.41;102860.22;5088378;28;20048;-31
2022/04/30 10:32:56;;;;;;;2.42;1.08;;;;;;;17.75;49.29;102866.97;5090367;28;20135;-27
2022/04/30 10:35:32;;;;;;;2.05;0.73;;;;;;;17.83;48.70;102863.47;5089924;28;20051;-33
2022/04/30 10:38:11;;;;;;;3.05;1.00;;;;;;;17.94;47.98;102853.75;5090264;28;20044;-32
2022/04/30 10:40:40;;;;;;;2.83;1.00;;;;;;;17.83;48.01;102846.53;5090516;28;20429;-33
2022/04/30 10:43:26;;;;;;;2.42;0.90;;;;;;;17.69;47.74;102845.56;5089280;28;20052;-31
2022/04/30 10:45:56;;;;;;;3.22;1.00;;;;;;;17.58;48.84;102855.25;5079399;28;20062;-27
2022/04/30 10:48:24;;;;;;;3.10;1.00;;;;;;;17.36;48.58;102842.50;5089680;28;20101;-28
2022/04/30 10:51:04;;;;;;;2.90;0.90;;;;;;;17.22;48.09;102850.78;5090431;28;20040;-36
2022/04/30 10:53:32;;;;;;;2.45;0.80;;;;;;;16.97;49.27;102842.56;5087365;28;20036;-33
2022/04/30 10:56:01;;;;;;;2.45;0.80;;;;;;;16.76;50.33;102846.66;5089791;28;20059;-26
2022/04/30 10:58:30;;;;;;;2.17;0.75;;;;;;;16.71;51.31;102849.50;5089985;28;20048;-32
2022/04/30 11:01:10;;;;;;;2.28;0.80;;;;;;;16.72;50.91;102845.56;5086819;28;20043;-30
2022/04/30 11:03:38;;;;;;;2.65;1.08;;;;;;;16.58;51.63;102848.16;5088951;28;20039;-30
2022/04/30 11:06:09;;;;;;;2.65;1.17;;;;;;;16.54;51.95;102841.41;5090112;28;20076;-32
2022/04/30 11:08:37;;;;;;;2.97;1.10;;;;;;;16.55;52.22;102845.91;5090111;28;20048;-28
2022/04/30 11:11:05;;;;;;;3.55;1.40;;;;;;;16.55;52.55;102845.91;5089388;28;20081;-24
2022/04/30 11:13:33;;;;;;;3.55;1.25;;;;;;;16.47;52.75;102850.19;5090066;28;20052;-32
2022/04/30 11:16:02;;;;;;;3.47;1.55;;;;;;;16.41;53.27;102842.03;5089722;28;20485;-33
2022/04/30 11:18:30;;;;;;;3.00;1.30;;;;;;;16.40;53.75;102840.34;5093040;28;20048;-30
2022/04/30 11:21:00;;;;;;;2.38;1.20;;;;;;;16.41;53.98;102837.25;5093760;28;20056;-32
2022/04/30 11:23:29;;;;;;;3.17;1.30;;;;;;;16.35;54.07;102835.59;5085270;28;20052;-29
2022/04/30 11:25:57;;;;;;;4.68;1.17;;;;;;;16.46;53.74;102827.91;5093969;28;20050;-30
2022/04/30 11:28:29;;;;;;;1.83;0.90;;;;;;;16.69;53.71;102830.06;5093815;28;20044;-32
2022/04/30 11:31:01;;;;;;;2.55;0.90;;;;;;;16.86;53.10;102818.38;5093005;28;20050;-29
2022/04/30 11:33:36;;;;;;;2.78;0.82;;;;;;;16.99;52.36;102822.47;5093674;28;20036;-32
2022/04/30 11:36:05;;;;;;;2.63;1.10;;;;;;;17.07;51.76;102819.03;5093796;28;20130;-34
2022/04/30 11:38:33;;;;;;;4.88;1.45;;;;;;;16.98;51.33;102823.66;5092940;28;20408;-26
2022/04/30 11:41:04;;;;;;;4.20;1.30;;;;;;;16.97;52.45;102816.31;5093661;28;20155;-28
2022/04/30 11:43:32;;;;;;;3.92;1.30;;;;;;;17.10;52.70;102824.94;5093492;28;20050;-31
2022/04/30 11:46:01;;;;;;;2.70;1.27;;;;;;;17.27;52.45;102810.38;5092849;28;20070;-29
2022/04/30 11:48:38;;;;;;;3.78;1.20;;;;;;;17.36;51.43;102824.72;5093574;28;20044;-32
2022/04/30 11:51:10;;;;;;;2.45;0.98;;;;;;;17.30;51.66;102817.41;5093450;28;20373;-28
2022/04/30 11:53:41;;;;;;;2.65;0.90;;;;;;;17.29;51.81;102810.94;5093327;28;20376;-31
2022/04/30 11:56:09;;;;;;;3.55;1.10;;;;;;;17.23;51.45;102814.94;5093669;28;20040;-29
2022/04/30 11:58:41;;;;;;;3.95;1.00;;;;;;;17.17;51.15;102810.50;5092644;28;20051;-29
2022/04/30 12:01:25;;;;;;;2.47;1.27;;;;;;;17.01;50.60;102815.41;5081756;28;20044;-30
2022/04/30 12:04:14;;;;;;;2.22;0.85;;;;;;;16.84;50.96;102809.34;5093147;28;20040;-29
2022/04/30 12:06:44;;;;;;;2.17;0.80;;;;;;;16.69;51.46;102809.47;5084271;28;20057;-29
2022/04/30 12:09:15;;;;;;;2.35;0.90;;;;;;;16.58;51.67;102808.69;5093110;28;20051;-27
2022/04/30 12:11:44;;;;;;;3.00;1.25;;;;;;;16.42;52.13;102819.19;5092899;28;20051;-27
2022/04/30 12:14:12;;;;;;;3.13;1.10;;;;;;;16.27;52.40;102818.44;5092051;28;20052;-27
2022/04/30 12:16:41;;;;;;;4.03;1.15;;;;;;;16.10;52.57;102816.00;5092387;28;20055;-28
2022/04/30 12:25:02;;;;;;;3.72;1.00;;;;;;;15.61;53.67;102804.63;5092654;28;20090;-30
2022/04/30 12:27:30;;;;;;;2.13;0.98;;;;;;;15.52;54.39;102799.59;5091533;28;20079;-33
2022/04/30 12:30:09;;;;;;;3.13;1.15;;;;;;;15.47;53.69;102798.75;5092670;28;20050;-27
2022/04/30 12:32:48;;;;;;;2.35;1.35;;;;;;;15.32;54.06;102798.78;5092548;28;20051;-31
2022/04/30 12:35:25;;;;;;;2.40;1.02;;;;;;;15.23;54.54;102798.50;5091585;28;20063;-32
2022/04/30 12:38:03;;;;;;;3.85;1.73;;;;;;;15.24;55.15;102799.34;5092639;28;20046;-30
2022/04/30 12:40:31;;;;;;;2.60;1.25;;;;;;;15.23;55.41;102794.84;5092571;28;20044;-32
2022/04/30 12:42:59;;;;;;;3.42;1.40;;;;;;;15.16;55.08;102798.81;5091951;28;20028;-28
2022/04/30 12:45:27;;;;;;;3.03;1.20;;;;;;;15.14;55.18;102798.25;5092436;28;20040;-31
2022/04/30 12:47:55;;;;;;;2.50;1.25;;;;;;;15.20;55.33;102789.78;5091263;28;20051;-29
2022/04/30 12:50:24;;;;;;;3.03;1.63;;;;;;;15.28;55.51;102790.06;5092571;28;20048;-27
2022/04/30 12:52:52;;;;;;;3.40;1.40;;;;;;;15.38;55.30;102790.06;5091958;28;20050;-29
2022/04/30 12:55:20;;;;;;;4.28;1.45;;;;;;;15.45;55.25;102789.75;5091453;28;20056;-30
2022/04/30 12:57:49;;;;;;;4.28;1.52;;;;;;;15.43;54.84;102786.38;5091962;28;20477;-30
2022/04/30 13:00:18;;;;;;;2.97;1.33;;;;;;;15.38;55.07;102786.41;5091918;28;20071;-32
2022/04/30 13:02:46;;;;;;;3.88;1.20;;;;;;;15.36;55.76;102783.88;5090976;28;20067;-31
2022/04/30 13:05:16;;;;;;;4.00;1.25;;;;;;;15.46;55.78;102780.19;5091999;28;20394;-34
2022/04/30 13:07:45;;;;;;;4.55;1.30;;;;;;;15.49;55.28;102780.44;5091737;28;20044;-32
2022/04/30 13:15:45;;;;;;;5.80;1.65;;;;;;;15.69;55.43;102759.88;5091894;28;20040;-34
2022/04/30 13:18:14;;;;;;;2.95;1.33;;;;;;;15.77;55.79;102767.72;5089973;28;20044;-32
2022/04/30 13:20:42;;;;;;;3.47;1.60;;;;;;;15.80;55.39;102764.31;5091386;28;20040;-26
2022/04/30 13:23:11;;;;;;;4.30;1.70;;;;;;;15.75;55.43;102763.53;5090239;28;20051;-29
2022/04/30 13:25:39;;;;;;;3.25;1.13;;;;;;;15.74;55.51;102765.50;5089410;28;20130;-31
2022/04/30 13:28:07;;;;;;;2.17;1.20;;;;;;;15.71;55.25;102765.22;5091550;28;20047;-32
2022/04/30 13:30:34;;;;;;;3.17;1.45;;;;;;;15.62;55.41;102759.31;5090866;28;20051;-32
2022/04/30 13:33:04;;;;;;;3.47;1.58;;;;;;;15.47;55.27;102759.34;5091364;28;20039;-28
2022/04/30 13:35:31;;;;;;;2.17;1.42;;;;;;;15.21;55.75;102764.19;5091206;28;20055;-26
2022/04/30 13:37:59;;;;;;;2.97;1.75;;;;;;;14.96;56.20;102770.72;5089153;28;20440;-31
2022/04/30 13:40:29;;;;;;;4.30;1.50;;;;;;;14.67;56.90;102763.97;5087285;28;20421;-37
2022/04/30 13:42:56;;;;;;;4.90;1.88;;;;;;;14.44;57.40;102766.19;5090018;28;20102;-29
2022/04/30 13:45:24;;;;;;;2.85;1.58;;;;;;;14.29;57.76;102765.28;5089630;28;20396;-30
2022/04/30 13:47:52;;;;;;;2.47;1.70;;;;;;;14.10;58.48;102757.38;5090446;28;20131;-25
2022/04/30 13:50:22;;;;;;;4.00;1.70;;;;;;;13.98;59.11;102764.38;5089543;28;20056;-26
2022/04/30 13:52:51;;;;;;;4.10;1.77;;;;;;;13.89;59.32;102755.63;5089198;28;20052;-31
2022/04/30 13:55:19;;;;;;;2.60;1.50;;;;;;;13.86;59.72;102761.78;5089973;28;20263;-30
2022/04/30 13:57:48;;;;;;;3.25;1.95;;;;;;;13.82;60.29;102760.66;5089942;28;20044;-34
2022/04/30 14:00:20;;;;;;;4.05;2.40;;;;;;;13.73;60.73;102751.09;5089078;28;20142;-26
2022/04/30 14:02:48;;;;;;;;;;;;;;;13.60;62.58;102748.78;5090102;28;20048;-34
2022/04/30 14:05:17;;;;;;;3.55;2.30;;;;;;;13.57;62.43;102743.72;5086370;28;20381;-31
2022/04/30 14:07:44;;;;;;;5.13;2.65;;;;;;;13.61;62.49;102745.69;5089680;28;20059;-29
2022/04/30 14:10:12;;;;;;;3.53;2.20;;;;;;;13.63;62.59;102743.47;5089249;28;20063;-29
2022/04/30 14:12:46;;;;;;;4.07;2.92;;;;;;;13.65;63.65;102743.19;5087083;28;20109;-26
2022/04/30 14:15:15;;;;;;;3.78;2.63;;;;;;;13.66;63.76;102737.31;5085958;28;20040;-26
2022/04/30 14:20:28;;;;;;;5.15;2.90;;;;;;;13.59;63.01;102731.09;5085665;28;20067;-30
2022/04/30 14:22:56;;;;;;;4.60;2.58;;;;;;;13.60;63.12;102738.41;5089831;28;20568;-28
2022/04/30 14:25:24;;;;;;;5.18;2.47;;;;;;;13.64;62.65;102736.75;5083643;28;20408;-32
2022/04/30 14:27:52;;;;;;;4.65;2.50;;;;;;;13.69;62.62;102733.97;5085267;28;20468;-32
2022/04/30 14:30:24;;;;;;;4.07;2.65;;;;;;;13.75;62.18;102732.88;5089885;28;20177;-34
2022/04/30 14:32:51;;;;;;;4.47;2.80;;;;;;;13.71;61.87;102726.13;5089285;28;20052;-30
2022/04/30 14:35:19;;;;;;;6.07;3.40;;;;;;;13.67;62.19;102730.59;5088607;28;20036;-31
2022/04/30 14:37:47;;;;;;;7.75;3.35;;;;;;;13.63;63.06;102726.63;5088795;28;20044;-26
2022/04/30 14:40:16;;;;;;;5.30;3.33;;;;;;;13.62;63.42;102729.72;5088529;28;20059;-27
2022/04/30 14:42:44;;;;;;;5.97;3.25;;;;;;;13.59;63.45;102728.28;5088992;28;20080;-27
2022/04/30 14:45:14;;;;;;;5.85;3.20;;;;;;;13.52;63.71;102726.88;5082373;28;20063;-27
2022/04/30 14:47:44;;;;;;;5.60;3.35;;;;;;;13.49;63.90;102725.47;5088330;28;20110;-35
2022/04/30 14:50:12;;;;;;;5.00;2.75;;;;;;;13.45;64.06;102719.53;5091018;28;20048;-32
2022/04/30 14:52:40;;;;;;;3.88;2.30;;;;;;;13.43;63.56;102720.94;5091693;28;20058;-29
2022/04/30 14:55:08;;;;;;;4.35;2.90;;;;;;;13.43;63.58;102724.56;5092421;28;20047;-27
2022/04/30 14:57:36;;;;;;;5.43;2.72;;;;;;;13.40;63.80;102724.28;5093345;28;20405;-30
2022/04/30 15:00:05;;;;;;;6.43;3.33;;;;;;;13.40;63.89;102727.06;5092976;28;20047;-31
2022/04/30 15:02:33;;;;;;;3.88;2.60;;;;;;;13.40;64.14;102727.06;5091818;28;20048;-28
2022/04/30 15:05:02;;;;;;;4.93;3.20;;;;;;;13.43;64.10;102720.94;5092132;28;20067;-31
2022/04/30 15:07:30;;;;;;;6.72;3.40;;;;;;;13.40;63.82;102719.50;5092757;28;20052;-30
2022/04/30 15:09:58;;;;;;;4.85;2.65;;;;;;;13.44;63.87;102714.22;5091984;28;20067;-26
2022/04/30 15:12:26;;;;;;;3.28;2.42;;;;;;;13.53;63.63;102723.78;5090986;28;20048;-30
2022/04/30 15:14:53;;;;;;;5.30;2.45;;;;;;;13.64;63.41;102707.84;5092448;28;20047;-27
2022/04/30 15:17:21;;;;;;;6.47;2.63;;;;;;;13.75;62.62;102716.03;5091940;28;20056;-32
2022/04/30 15:19:49;;;;;;;5.47;2.75;;;;;;;13.88;62.32;102717.47;5092073;28;20036;-32
2022/04/30 15:22:18;;;;;;;4.75;3.08;;;;;;;13.98;61.92;102714.69;5092072;28;20056;-32
2022/04/30 15:24:46;;;;;;;5.32;2.70;;;;;;;14.00;60.50;102708.78;5088027;28;20147;-28
2022/04/30 15:27:14;;;;;;;5.82;2.53;;;;;;;14.08;59.40;102711.91;5092301;28;20055;-27
2022/04/30 15:29:42;;;;;;;3.33;2.38;;;;;;;14.24;59.31;102711.91;5091665;28;20496;-30
2022/04/30 15:32:10;;;;;;;4.82;2.35;;;;;;;14.44;58.23;102710.00;5092594;28;20441;-24
2022/04/30 15:34:38;;;;;;;4.45;2.40;;;;;;;14.64;56.84;102702.69;5089753;28;20094;-29
2022/04/30 15:37:06;;;;;;;3.30;1.90;;;;;;;14.75;54.24;102696.81;5091848;28;20044;-32
2022/04/30 15:39:35;;;;;;;4.85;2.05;;;;;;;14.88;53.66;102697.34;5092101;28;20052;-29
2022/04/30 15:42:04;;;;;;;4.18;2.25;;;;;;;15.05;53.57;102689.44;5092465;28;20044;-29
2022/04/30 15:44:31;;;;;;;4.40;2.25;;;;;;;15.21;52.48;102693.88;5091388;28;20044;-27
2022/04/30 15:52:30;;;;;;;3.60;2.03;;;;;;;15.45;49.89;102692.13;5085584;28;20044;-32
2022/04/30 15:54:59;;;;;;;6.55;2.10;;;;;;;15.58;50.27;102692.69;5092124;28;20055;-27
2022/04/30 15:57:26;;;;;;;5.00;2.40;;;;;;;15.70;50.88;102687.53;5092428;28;20380;-29
2022/04/30 15:59:55;;;;;;;6.53;2.45;;;;;;;15.76;51.87;102703.28;5091155;28;20695;-31
2022/04/30 16:02:22;;;;;;;4.47;2.70;;;;;;;15.72;51.62;102696.53;5090647;28;20134;-28
2022/04/30 16:04:50;;;;;;;4.15;2.80;;;;;;;15.66;52.46;102694.88;5091162;28;20082;-27
2022/04/30 16:07:18;;;;;;;4.05;2.58;;;;;;;15.66;54.17;102692.06;5091601;28;20413;-29
2022/04/30 16:09:46;;;;;;;5.95;2.78;;;;;;;15.67;54.97;102691.78;5091663;28;20052;-24
2022/04/30 16:12:16;;;;;;;7.30;3.00;;;;;;;15.68;54.86;102695.44;5090192;28;20085;-28
2022/04/30 16:14:44;;;;;;;5.40;3.40;;;;;;;15.68;54.87;102687.81;5091287;28;20036;-29
2022/04/30 16:17:12;;;;;;;5.32;2.85;;;;;;;15.61;54.60;102689.25;5091274;28;20054;-23
2022/04/30 16:19:40;;;;;;;6.20;2.88;;;;;;;15.46;54.52;102688.16;5090009;28;20071;-30
2022/04/30 16:22:09;;;;;;;4.45;3.10;;;;;;;15.40;55.16;102688.47;5091379;28;20079;-30
2022/04/30 16:24:37;;;;;;;3.35;2.28;;;;;;;15.41;55.72;102693.81;5090856;28;20044;-28
2022/04/30 16:27:05;;;;;;;4.15;2.47;;;;;;;15.46;55.67;102685.34;5090516;28;20360;-30
2022/04/30 16:29:35;;;;;;;5.18;3.00;;;;;;;15.48;55.15;102683.09;5090447;28;20040;-29
2022/04/30 16:32:03;;;;;;;5.50;2.90;;;;;;;15.38;55.47;102683.16;5091344;28;20051;-29
2022/04/30 16:34:31;;;;;;;4.43;2.92;;;;;;;15.30;55.95;102683.75;5090470;28;20050;-33